TAF and METAR

No METAR available for Brest Airport

TAF for Brest Airport

TAF UMBB 231705Z 2318/2403 VRB02MPS 3000 BR BKN005 TEMPO 2319/2403 0500 FZFG VV003
Report created 23. jan 18:05

between 23. jan 19:00 - 24. jan 04:00

wind 4 knots from various directions visibility 3000 meters mist broken clouds (~75% cover) at 500 feet

temporarily between 23. jan 20:00 - 24. jan 04:00

visibility 500 meters freezing fog vertical visibility 300 feet
Brest Airport in Belarus at 143m

Latest 5 airports